Time;durP1;ratioP1;P1;durP2;ratioP2;P2;SDS_P1;SDS_P2;PMS_P1;PMS_P2;Temp;Humidity;BMP_temperature;BMP_pressure;BME280_temperature;BME280_humidity;BME280_pressure;Samples;Min_cycle;Max_cycle;Signal;HPM_P1;HPM_P2
2021/10/01 00:01:43;;;;;;;1.70;1.43;;;;;;;21.58;78.50;98337.00;5015027;28;20714;-62
2021/10/01 00:04:11;;;;;;;1.40;1.30;;;;;;;21.63;78.65;98350.88;5009486;28;20553;-62
2021/10/01 00:06:38;;;;;;;1.47;1.37;;;;;;;21.61;78.85;98338.03;5013673;28;20695;-62
2021/10/01 00:09:05;;;;;;;1.50;1.40;;;;;;;21.60;78.74;98337.97;5032823;28;20253;-62
2021/10/01 00:11:32;;;;;;;1.43;1.33;;;;;;;21.63;78.79;98349.22;5033075;28;20233;-62
2021/10/01 00:13:59;;;;;;;1.70;1.27;;;;;;;21.63;78.63;98346.66;5007256;28;20279;-63
2021/10/01 00:16:25;;;;;;;1.50;1.40;;;;;;;21.62;79.05;98339.75;5032655;28;20225;-62
2021/10/01 00:18:52;;;;;;;1.30;1.20;;;;;;;21.62;78.73;98333.78;5034408;28;20252;-63
2021/10/01 00:21:18;;;;;;;1.50;1.40;;;;;;;21.61;78.45;98334.59;5015829;28;20198;-63
2021/10/01 00:23:45;;;;;;;1.33;1.23;;;;;;;21.62;78.89;98332.09;5022125;28;20237;-62
2021/10/01 00:26:11;;;;;;;1.40;1.30;;;;;;;21.62;78.95;98326.97;5036508;28;20242;-64
2021/10/01 00:28:38;;;;;;;1.40;1.30;;;;;;;21.63;79.05;98330.41;5021540;28;20275;-63
2021/10/01 00:31:05;;;;;;;1.30;1.20;;;;;;;21.62;78.78;98328.69;5033574;28;20233;-62
2021/10/01 00:33:31;;;;;;;2.17;1.40;;;;;;;21.64;78.83;98324.47;5032190;28;20247;-62
2021/10/01 00:36:00;;;;;;;1.77;1.33;;;;;;;21.62;79.00;98319.31;5039757;28;20256;-64
2021/10/01 00:38:28;;;;;;;1.30;1.20;;;;;;;21.59;78.91;98308.94;5033846;28;20734;-63
2021/10/01 00:40:54;;;;;;;1.03;1.03;;;;;;;21.64;78.93;98315.13;5005333;28;20212;-65
2021/10/01 00:43:21;;;;;;;1.20;1.10;;;;;;;21.46;79.07;98277.69;5032963;28;20259;-62
2021/10/01 00:45:47;;;;;;;1.40;1.30;;;;;;;21.59;78.72;98298.72;5016734;28;20193;-62
2021/10/01 00:48:14;;;;;;;1.40;1.30;;;;;;;21.63;78.87;98303.16;4998789;28;20206;-61
2021/10/01 00:50:41;;;;;;;1.20;1.10;;;;;;;21.64;79.04;98304.91;5033831;28;20197;-63
2021/10/01 00:53:07;;;;;;;1.70;1.30;;;;;;;21.65;78.84;98308.34;5014219;28;20718;-63
2021/10/01 00:55:34;;;;;;;1.47;1.37;;;;;;;21.65;78.89;98303.22;5015647;28;20252;-62
2021/10/01 00:58:01;;;;;;;1.37;1.27;;;;;;;21.64;78.87;98296.34;5033362;28;20205;-62
2021/10/01 01:00:27;;;;;;;1.30;1.20;;;;;;;21.55;79.02;98283.19;5025972;28;20259;-62
2021/10/01 01:02:56;;;;;;;1.40;1.30;;;;;;;21.56;78.81;98280.69;5011318;28;20203;-62
2021/10/01 01:05:28;;;;;;;1.30;1.20;;;;;;;21.64;79.01;98289.53;5017003;28;20189;-61
2021/10/01 01:08:00;;;;;;;1.50;1.40;;;;;;;21.63;78.85;98297.16;5014833;28;20287;-63
2021/10/01 01:10:36;;;;;;;1.10;1.10;;;;;;;21.63;78.96;98290.38;5001504;28;20267;-62
2021/10/01 01:13:13;;;;;;;1.43;1.20;;;;;;;21.63;79.00;98295.50;5018782;28;20245;-63
2021/10/01 01:16:20;;;;;;;1.20;1.17;;;;;;;21.63;78.91;98292.03;5020785;28;20224;-61
2021/10/01 01:18:48;;;;;;;1.40;1.30;;;;;;;21.63;79.02;98290.38;5004381;28;20225;-63
2021/10/01 01:21:33;;;;;;;1.37;1.20;;;;;;;21.50;79.26;98259.97;5019899;28;20236;-62
2021/10/01 01:24:30;;;;;;;1.20;1.10;;;;;;;21.62;79.23;98274.97;5005703;28;20254;-62
2021/10/01 01:27:19;;;;;;;1.23;1.13;;;;;;;21.62;79.37;98275.81;5032935;28;20643;-63
2021/10/01 01:30:05;;;;;;;1.40;1.30;;;;;;;21.61;79.40;98268.97;5033529;28;20665;-62
2021/10/01 01:32:33;;;;;;;1.63;1.27;;;;;;;21.62;79.43;98262.16;5032336;28;20660;-63
2021/10/01 01:35:08;;;;;;;1.60;1.20;;;;;;;21.54;79.49;98251.63;5007551;28;20727;-63
2021/10/01 01:37:55;;;;;;;1.60;1.20;;;;;;;21.60;79.16;98261.22;4998647;28;20243;-63
2021/10/01 01:40:23;;;;;;;1.43;1.20;;;;;;;21.62;79.36;98257.91;5009915;28;20217;-63
2021/10/01 01:42:53;;;;;;;1.30;1.20;;;;;;;21.62;79.46;98254.50;5014725;28;20836;-62
2021/10/01 01:45:19;;;;;;;1.30;1.20;;;;;;;21.62;79.35;98259.63;4999165;28;20229;-65
2021/10/01 01:47:46;;;;;;;1.43;1.07;;;;;;;21.62;79.23;98251.94;5015553;28;20252;-62
2021/10/01 01:50:13;;;;;;;1.83;1.23;;;;;;;21.62;79.34;98252.78;5001388;28;20253;-62
2021/10/01 01:52:40;;;;;;;1.60;1.30;;;;;;;21.62;79.38;98247.66;5004650;28;20729;-63
2021/10/01 01:55:07;;;;;;;1.27;1.10;;;;;;;21.58;79.17;98238.13;5001309;28;20225;-62
2021/10/01 01:57:34;;;;;;;1.30;1.20;;;;;;;21.64;79.15;98250.28;4989469;28;20256;-62
2021/10/01 02:00:01;;;;;;;1.37;1.27;;;;;;;21.51;79.24;98217.38;5015213;28;20654;-63
2021/10/01 02:02:27;;;;;;;1.30;1.20;;;;;;;21.64;79.13;98234.94;5004002;28;20284;-63
2021/10/01 02:04:54;;;;;;;1.30;1.20;;;;;;;21.50;79.35;98210.53;5003004;28;20204;-62
2021/10/01 02:07:21;;;;;;;1.43;1.30;;;;;;;21.60;79.39;98227.97;5007977;28;20237;-62
2021/10/01 02:09:47;;;;;;;1.30;1.20;;;;;;;21.59;79.52;98226.25;5010520;28;20267;-63
2021/10/01 02:12:14;;;;;;;1.33;1.20;;;;;;;21.64;79.26;98240.94;5024581;28;20724;-64
2021/10/01 02:14:46;;;;;;;1.23;1.13;;;;;;;21.64;79.32;98232.38;5005547;28;20236;-63
2021/10/01 02:17:13;;;;;;;1.30;1.20;;;;;;;21.60;78.98;98217.75;5017030;28;20257;-63
2021/10/01 02:19:39;;;;;;;1.23;1.13;;;;;;;21.65;79.23;98227.31;5017133;28;20248;-64
2021/10/01 02:22:06;;;;;;;1.47;1.20;;;;;;;21.65;79.23;98226.47;5025599;28;20236;-63
2021/10/01 02:24:33;;;;;;;1.20;1.10;;;;;;;21.63;78.92;98211.06;5017417;28;20233;-62
2021/10/01 02:27:24;;;;;;;1.40;1.30;;;;;;;21.65;79.08;98219.66;5024526;28;20204;-62
2021/10/01 02:30:00;;;;;;;1.10;1.10;;;;;;;21.64;79.17;98210.25;5035823;28;20253;-61
2021/10/01 02:32:32;;;;;;;1.10;1.10;;;;;;;21.62;79.17;98203.34;5017822;28;20201;-62
2021/10/01 02:34:59;;;;;;;1.50;1.40;;;;;;;21.64;79.51;98201.69;5044343;28;20233;-62
2021/10/01 02:37:26;;;;;;;1.30;1.20;;;;;;;21.63;79.38;98202.50;5034736;28;20699;-63
2021/10/01 02:39:53;;;;;;;1.37;1.27;;;;;;;21.63;79.43;98203.41;5029958;28;20729;-62
2021/10/01 02:42:20;;;;;;;1.27;1.17;;;;;;;21.63;79.51;98205.06;5034694;28;20244;-62
2021/10/01 02:44:48;;;;;;;1.00;1.00;;;;;;;21.61;79.37;98199.91;5002398;28;20631;-62
2021/10/01 02:47:15;;;;;;;1.17;1.13;;;;;;;21.60;79.56;98198.16;5028866;28;20197;-62
2021/10/01 02:49:42;;;;;;;1.47;1.30;;;;;;;21.45;79.66;98164.31;5000890;28;20275;-63
2021/10/01 02:52:17;;;;;;;1.50;1.37;;;;;;;21.62;79.46;98201.63;5011431;28;20284;-62
2021/10/01 02:54:49;;;;;;;1.20;1.10;;;;;;;21.63;79.67;98202.50;5003589;28;20197;-62
2021/10/01 02:57:18;;;;;;;1.90;1.40;;;;;;;21.61;79.41;98193.88;5011445;28;20257;-63
2021/10/01 02:59:45;;;;;;;1.30;1.20;;;;;;;21.63;79.54;98193.16;5035826;28;20245;-62
2021/10/01 03:02:13;;;;;;;1.10;1.00;;;;;;;21.63;79.41;98195.72;5025211;28;20233;-63
2021/10/01 03:04:39;;;;;;;2.57;1.30;;;;;;;21.64;79.54;98191.47;5020263;28;20486;-63
2021/10/01 03:07:06;;;;;;;1.40;1.30;;;;;;;21.46;79.66;98165.16;4986508;28;20197;-62
2021/10/01 03:09:33;;;;;;;1.40;1.30;;;;;;;21.63;79.32;98185.50;5013100;28;20221;-64
2021/10/01 03:11:59;;;;;;;1.40;1.30;;;;;;;21.64;79.46;98181.22;5000987;28;20197;-61
2021/10/01 03:14:26;;;;;;;1.10;1.10;;;;;;;21.60;79.02;98175.13;5000775;28;20230;-62
2021/10/01 03:16:52;;;;;;;1.27;1.17;;;;;;;21.59;79.77;98175.94;5021745;28;20352;-62
2021/10/01 03:19:22;;;;;;;0.97;0.97;;;;;;;21.65;79.36;98175.31;5003752;28;20582;-62
2021/10/01 03:21:51;;;;;;;1.30;1.20;;;;;;;21.59;79.46;98165.69;5030997;28;20206;-62
2021/10/01 03:24:19;;;;;;;1.33;1.23;;;;;;;21.64;79.48;98177.00;5004160;28;20252;-62
2021/10/01 03:26:45;;;;;;;1.23;1.10;;;;;;;21.65;79.46;98181.28;5035490;28;20634;-62
2021/10/01 03:29:12;;;;;;;2.03;1.30;;;;;;;21.57;79.47;98158.78;4999435;28;20256;-62
2021/10/01 03:31:39;;;;;;;1.27;1.10;;;;;;;21.59;79.50;98167.41;5004986;28;20230;-64
2021/10/01 03:34:07;;;;;;;1.33;1.20;;;;;;;21.64;79.07;98171.00;5024754;28;20197;-63
2021/10/01 03:36:35;;;;;;;1.23;1.13;;;;;;;21.65;79.46;98168.50;5034578;28;20236;-64
2021/10/01 03:39:02;;;;;;;1.00;1.00;;;;;;;21.63;79.49;98164.13;5024687;28;20715;-63
2021/10/01 03:41:28;;;;;;;1.17;1.10;;;;;;;21.65;79.39;98163.38;5026707;28;20618;-61
2021/10/01 03:43:55;;;;;;;1.40;1.30;;;;;;;21.64;79.27;98159.09;5035482;28;20263;-61
2021/10/01 03:46:22;;;;;;;1.30;1.20;;;;;;;21.65;79.18;98162.53;5033956;28;20285;-62
2021/10/01 03:48:49;;;;;;;1.30;1.20;;;;;;;21.64;79.10;98168.44;5035950;28;20233;-62
2021/10/01 03:51:16;;;;;;;1.30;1.20;;;;;;;21.64;79.36;98158.19;5032229;28;21584;-64
2021/10/01 03:53:43;;;;;;;1.23;1.13;;;;;;;21.61;79.48;98153.84;4990479;28;20230;-61
2021/10/01 03:56:16;;;;;;;1.60;1.50;;;;;;;21.58;79.43;98142.63;5025384;28;20303;-61
2021/10/01 03:58:44;;;;;;;1.20;1.10;;;;;;;21.62;79.50;98147.06;5034711;28;20228;-63
2021/10/01 04:01:10;;;;;;;1.67;1.30;;;;;;;21.62;79.00;98147.06;5033619;28;20242;-62
2021/10/01 04:03:37;;;;;;;1.20;1.10;;;;;;;21.63;79.68;98149.69;5034329;28;20270;-62
2021/10/01 04:06:05;;;;;;;1.30;1.20;;;;;;;21.63;79.69;98153.91;5033300;28;20201;-63
2021/10/01 04:08:31;;;;;;;1.20;1.10;;;;;;;21.63;79.49;98152.22;5030705;28;20257;-63
2021/10/01 04:10:58;;;;;;;1.13;1.03;;;;;;;21.62;79.70;98158.13;5040161;28;20697;-61
2021/10/01 04:13:25;;;;;;;1.30;1.20;;;;;;;21.58;79.54;98148.63;5043701;28;20200;-60
2021/10/01 04:15:52;;;;;;;1.20;1.10;;;;;;;21.63;79.62;98159.03;5034499;28;20240;-63
2021/10/01 04:18:19;;;;;;;1.30;1.20;;;;;;;21.59;79.64;98147.78;5040939;28;20285;-65
2021/10/01 04:20:46;;;;;;;1.30;1.20;;;;;;;21.63;79.36;98159.03;5018512;28;20233;-62
2021/10/01 04:23:13;;;;;;;1.20;1.10;;;;;;;21.64;79.34;98148.84;5038244;28;20272;-62
2021/10/01 04:25:39;;;;;;;1.23;1.17;;;;;;;21.64;79.36;98151.41;5031916;28;20245;-62
2021/10/01 04:28:09;;;;;;;1.10;1.10;;;;;;;21.64;79.53;98148.84;5019502;28;20196;-63
2021/10/01 04:30:42;;;;;;;1.10;1.10;;;;;;;21.65;79.46;98139.50;5006700;28;20644;-62
2021/10/01 04:33:24;;;;;;;1.30;1.20;;;;;;;21.61;79.37;98135.06;5027213;28;20206;-65
2021/10/01 04:35:51;;;;;;;1.13;1.03;;;;;;;21.66;79.22;98139.56;4986029;28;20694;-63
2021/10/01 04:38:17;;;;;;;1.30;1.20;;;;;;;21.65;79.11;98145.47;4984970;28;20308;-62
2021/10/01 04:40:44;;;;;;;1.40;1.20;;;;;;;21.64;79.04;98132.63;5004717;28;20255;-64
2021/10/01 04:43:10;;;;;;;2.37;1.30;;;;;;;21.67;79.53;98140.41;5019015;28;20226;-62
2021/10/01 04:45:37;;;;;;;1.20;1.10;;;;;;;21.67;79.23;98140.41;5019916;28;20210;-64
2021/10/01 04:48:06;;;;;;;1.30;1.20;;;;;;;21.67;79.51;98142.97;5033742;28;20220;-62
2021/10/01 04:50:33;;;;;;;1.00;1.00;;;;;;;21.66;79.43;98138.69;5027173;28;20269;-62
2021/10/01 04:53:00;;;;;;;1.30;1.20;;;;;;;21.67;79.35;98138.75;5023462;28;20205;-63
2021/10/01 04:55:27;;;;;;;1.30;1.20;;;;;;;21.68;79.23;98142.19;5019111;28;20232;-63
2021/10/01 04:57:54;;;;;;;1.57;1.23;;;;;;;21.64;79.40;98136.06;5028960;28;20300;-64
2021/10/01 05:00:21;;;;;;;1.67;1.30;;;;;;;21.65;79.04;98131.84;4997637;28;20244;-63
2021/10/01 05:02:47;;;;;;;1.93;1.40;;;;;;;21.65;79.13;98137.78;5010537;28;20646;-63
2021/10/01 05:05:14;;;;;;;1.70;1.20;;;;;;;21.69;78.88;98144.78;5016507;28;20228;-62
2021/10/01 05:07:41;;;;;;;1.53;1.43;;;;;;;21.68;79.14;98143.03;5028232;28;20209;-64
2021/10/01 05:10:08;;;;;;;1.20;1.10;;;;;;;21.69;78.79;98146.47;5026938;28;20270;-63
2021/10/01 05:12:34;;;;;;;1.03;1.00;;;;;;;21.56;78.71;98118.69;5030377;28;20238;-62
2021/10/01 05:15:01;;;;;;;2.10;1.30;;;;;;;21.70;78.59;98145.66;5011143;28;20224;-64
2021/10/01 05:17:27;;;;;;;1.30;1.20;;;;;;;21.71;78.72;98149.97;5041641;28;20244;-64
2021/10/01 05:19:54;;;;;;;1.20;1.20;;;;;;;21.70;78.59;98145.66;5034896;28;20228;-64
2021/10/01 05:22:21;;;;;;;3.33;1.30;;;;;;;21.71;78.41;98152.53;5044077;28;20232;-64
2021/10/01 05:24:47;;;;;;;2.80;1.30;;;;;;;21.71;78.71;98148.25;5017357;28;20237;-63
2021/10/01 05:27:14;;;;;;;1.43;1.30;;;;;;;21.70;78.51;98148.19;5015550;28;20281;-65
2021/10/01 05:29:40;;;;;;;7.73;2.43;;;;;;;21.66;72.76;98141.25;5034314;28;20248;-64
2021/10/01 05:32:07;;;;;;;3.57;2.13;;;;;;;21.68;70.59;98149.84;5026796;28;20618;-63
2021/10/01 05:34:34;;;;;;;6.77;2.33;;;;;;;21.67;69.38;98150.66;5039446;28;20285;-63
2021/10/01 05:37:02;;;;;;;5.03;2.23;;;;;;;21.63;69.38;98144.56;5033101;28;20274;-64
2021/10/01 05:39:29;;;;;;;5.47;2.10;;;;;;;21.66;70.09;98147.22;5024919;28;20274;-65
2021/10/01 05:41:57;;;;;;;7.57;2.10;;;;;;;21.67;70.58;98145.53;5033583;28;20236;-63
2021/10/01 05:44:23;;;;;;;8.47;2.40;;;;;;;21.68;71.17;98153.25;5015019;28;20217;-63
2021/10/01 05:46:50;;;;;;;6.83;2.50;;;;;;;21.63;71.05;98142.00;5032595;28;20197;-63
2021/10/01 05:49:22;;;;;;;7.43;2.10;;;;;;;21.65;72.16;98142.91;5018840;28;20260;-63
2021/10/01 05:51:53;;;;;;;6.13;2.20;;;;;;;21.69;72.17;98138.78;5024781;28;20240;-63
2021/10/01 05:54:23;;;;;;;4.17;2.10;;;;;;;21.56;70.08;98118.69;5040942;28;20236;-63
2021/10/01 05:56:51;;;;;;;6.97;2.73;;;;;;;21.68;67.85;98144.72;5021430;28;20222;-64
2021/10/01 05:59:18;;;;;;;4.97;2.47;;;;;;;21.46;65.78;98108.91;5021283;28;20276;-64
2021/10/01 06:01:45;;;;;;;5.27;2.80;;;;;;;21.61;64.66;98132.50;5014224;28;20288;-64
2021/10/01 06:04:12;;;;;;;5.60;2.40;;;;;;;21.63;63.36;98138.56;5021370;28;20574;-64
2021/10/01 06:06:38;;;;;;;7.27;2.47;;;;;;;21.64;62.21;98150.53;5036947;28;20226;-64
2021/10/01 06:09:13;;;;;;;7.40;2.60;;;;;;;21.60;61.33;98146.13;5028606;28;20249;-64
2021/10/01 06:11:39;;;;;;;2.67;2.30;;;;;;;21.57;61.01;98133.22;5017379;28;20655;-63
2021/10/01 06:14:07;;;;;;;6.17;2.60;;;;;;;21.58;60.57;98135.81;5036958;28;20248;-64
2021/10/01 06:16:33;;;;;;;4.83;2.50;;;;;;;21.60;60.63;98138.44;5023846;28;20256;-63
2021/10/01 06:19:00;;;;;;;7.50;2.80;;;;;;;21.57;60.19;98140.88;5025326;28;20229;-63
2021/10/01 06:21:27;;;;;;;5.67;2.90;;;;;;;21.55;60.00;98128.03;5003564;28;20198;-63
2021/10/01 06:23:53;;;;;;;8.33;2.77;;;;;;;21.54;60.49;98121.19;5042533;28;20229;-62
2021/10/01 06:26:20;;;;;;;4.83;2.87;;;;;;;21.54;61.31;98126.31;5007295;28;20304;-63
2021/10/01 06:28:46;;;;;;;3.57;2.30;;;;;;;21.52;61.65;98127.91;5006701;28;20261;-62
2021/10/01 06:31:13;;;;;;;4.57;2.70;;;;;;;21.39;62.08;98110.38;5021285;28;20232;-64
2021/10/01 06:33:40;;;;;;;7.53;2.97;;;;;;;21.56;61.76;98132.31;5006806;28;20229;-64
2021/10/01 06:36:08;;;;;;;5.20;2.83;;;;;;;21.53;60.98;98128.81;5021119;28;20204;-63
2021/10/01 06:38:34;;;;;;;5.80;2.90;;;;;;;21.55;61.38;98143.38;5014434;28;20280;-63
2021/10/01 06:41:01;;;;;;;3.30;2.40;;;;;;;21.55;61.97;98142.50;5012269;28;20224;-63
2021/10/01 06:43:28;;;;;;;4.63;2.93;;;;;;;21.54;62.82;98139.09;5029940;28;20233;-63
2021/10/01 06:45:56;;;;;;;5.17;2.70;;;;;;;21.55;63.34;98138.25;5035044;28;20240;-64
2021/10/01 06:49:15;;;;;;;4.93;2.97;;;;;;;21.52;64.06;98132.16;5029659;28;20684;-63
2021/10/01 08:21:07;;;;;;;8.03;2.93;;;;;;;21.48;64.61;98118.41;4983127;28;20232;-63
2021/10/01 08:23:34;;;;;;;4.47;2.80;;;;;;;21.53;65.18;98129.66;5009542;28;20260;-63
2021/10/01 08:26:01;;;;;;;4.93;3.03;;;;;;;21.53;65.37;98133.91;5031669;28;20432;-62
2021/10/01 08:28:28;;;;;;;4.63;2.53;;;;;;;21.52;65.68;98122.81;5029007;28;20307;-64
2021/10/01 08:30:56;;;;;;;6.07;2.67;;;;;;;21.53;66.21;98119.41;5029559;28;20287;-64
2021/10/01 08:33:23;;;;;;;4.30;2.60;;;;;;;21.54;66.25;98117.75;5033582;28;20201;-63
2021/10/01 08:35:50;;;;;;;3.57;2.50;;;;;;;21.52;66.92;98111.69;5027623;28;20797;-63
2021/10/01 08:38:16;;;;;;;3.60;2.70;;;;;;;21.51;66.58;98108.28;5032318;28;20309;-64
2021/10/01 08:40:43;;;;;;;3.70;2.77;;;;;;;21.50;66.92;98101.41;5016118;28;20636;-63
2021/10/01 08:43:09;;;;;;;4.60;2.60;;;;;;;21.55;67.13;98111.81;4999400;28;20236;-64
2021/10/01 08:45:36;;;;;;;4.37;2.33;;;;;;;21.56;66.70;98108.47;5016383;28;20292;-64
2021/10/01 08:48:03;;;;;;;3.37;2.43;;;;;;;21.49;67.38;98107.34;4997045;28;20225;-63
2021/10/01 08:50:30;;;;;;;2.93;2.50;;;;;;;21.55;67.58;98104.13;4998371;28;20232;-64
2021/10/01 08:52:59;;;;;;;3.80;2.20;;;;;;;21.57;67.93;98108.50;5026318;28;20271;-62
2021/10/01 08:55:27;;;;;;;3.83;2.50;;;;;;;21.55;68.20;98099.03;5026126;28;20216;-62
2021/10/01 08:57:54;;;;;;;4.93;2.50;;;;;;;21.59;68.57;98099.19;5010899;28;20630;-63
2021/10/01 09:00:21;;;;;;;4.57;2.60;;;;;;;21.55;68.41;98092.22;5019405;28;20658;-64
2021/10/01 09:02:47;;;;;;;2.97;2.20;;;;;;;21.59;68.57;98099.19;5001090;28;20209;-63
2021/10/01 09:05:14;;;;;;;3.60;2.40;;;;;;;21.60;68.82;98100.97;5028967;28;20202;-63
2021/10/01 09:07:41;;;;;;;5.00;2.40;;;;;;;21.58;69.19;98091.47;5004523;28;20229;-63
2021/10/01 09:10:12;;;;;;;2.97;2.10;;;;;;;21.59;69.05;98088.97;5005225;28;20244;-64
2021/10/01 09:12:39;;;;;;;3.00;2.10;;;;;;;21.55;69.19;98076.88;5027121;28;20229;-64
2021/10/01 09:15:08;;;;;;;5.30;2.50;;;;;;;21.57;69.38;98080.38;4999828;28;20233;-64
2021/10/01 09:17:39;;;;;;;2.63;2.23;;;;;;;21.59;69.21;98088.13;5002485;28;20709;-64
2021/10/01 09:20:06;;;;;;;5.80;2.30;;;;;;;21.58;69.75;98076.13;5029874;28;20241;-63
2021/10/01 09:22:34;;;;;;;3.93;2.00;;;;;;;21.60;69.80;98083.06;5027283;28;20288;-63
2021/10/01 09:25:08;;;;;;;2.43;2.23;;;;;;;21.60;69.90;98075.38;5033452;28;20229;-63
2021/10/01 09:27:35;;;;;;;5.37;2.43;;;;;;;21.41;70.07;98044.78;5014530;28;20261;-63
2021/10/01 09:30:04;;;;;;;4.30;2.23;;;;;;;21.60;69.99;98075.38;5020589;28;20228;-63
2021/10/01 09:32:31;;;;;;;4.70;2.07;;;;;;;21.61;70.00;98066.00;5024555;28;20724;-63
2021/10/01 09:34:58;;;;;;;4.43;2.40;;;;;;;21.61;70.40;98059.22;5017276;28;20827;-64
2021/10/01 09:37:31;;;;;;;2.50;2.00;;;;;;;21.61;70.35;98059.22;5028366;28;20286;-62
2021/10/01 09:39:59;;;;;;;2.43;2.20;;;;;;;21.61;70.39;98056.66;5026239;28;20311;-62
2021/10/01 09:42:28;;;;;;;4.17;2.43;;;;;;;21.62;70.43;98052.41;5029734;28;20307;-62
2021/10/01 09:44:59;;;;;;;3.13;2.20;;;;;;;21.62;70.54;98053.25;5030728;28;20231;-64
2021/10/01 09:47:37;;;;;;;2.83;2.40;;;;;;;21.58;70.56;98042.88;5037623;28;20384;-63
2021/10/01 09:50:08;;;;;;;2.77;2.10;;;;;;;21.62;70.70;98045.59;5031291;22;20252;-64
2021/10/01 09:52:42;;;;;;;2.17;2.00;;;;;;;21.62;70.88;98047.31;5029000;28;20482;-65
2021/10/01 09:55:09;;;;;;;2.70;2.07;;;;;;;21.54;71.06;98035.91;5034490;28;20229;-65
2021/10/01 09:57:39;;;;;;;2.30;1.83;;;;;;;21.61;71.28;98050.66;5024804;28;20724;-67
2021/10/01 10:00:06;;;;;;;3.67;2.10;;;;;;;21.60;71.21;98042.13;5049435;28;20347;-67
2021/10/01 10:02:37;;;;;;;2.93;2.00;;;;;;;21.61;71.22;98031.06;5044929;28;20581;-67
2021/10/01 10:05:04;;;;;;;3.50;1.90;;;;;;;21.61;71.36;98022.50;5045136;28;20197;-66
2021/10/01 10:07:36;;;;;;;2.73;2.20;;;;;;;21.62;71.53;98024.28;5049809;28;20192;-67
2021/10/01 10:10:06;;;;;;;2.57;2.00;;;;;;;21.62;71.32;98021.72;5043317;28;20299;-67
2021/10/01 10:12:33;;;;;;;2.10;1.97;;;;;;;21.61;71.57;98014.84;5026850;28;20197;-67
2021/10/01 10:14:59;;;;;;;3.87;2.00;;;;;;;21.61;71.34;98017.41;5041309;28;20201;-67
2021/10/01 10:17:27;;;;;;;2.97;1.90;;;;;;;21.62;71.56;98017.44;5047909;28;20250;-67
2021/10/01 10:19:56;;;;;;;2.20;1.80;;;;;;;21.61;71.50;98012.28;5047953;28;20696;-67
2021/10/01 10:22:26;;;;;;;2.50;2.07;;;;;;;21.62;71.84;98011.50;5042842;28;20233;-68
2021/10/01 10:24:53;;;;;;;2.30;2.03;;;;;;;21.62;71.90;98009.78;5041360;28;20334;-67
2021/10/01 10:27:20;;;;;;;2.67;2.20;;;;;;;21.64;71.64;98007.28;5037764;28;20646;-68
2021/10/01 10:29:47;;;;;;;2.53;1.90;;;;;;;21.63;71.70;98005.53;5041356;28;20377;-68
2021/10/01 10:32:18;;;;;;;2.23;1.70;;;;;;;21.63;71.92;98001.31;5039204;28;20217;-68
2021/10/01 10:34:58;;;;;;;2.10;1.90;;;;;;;21.63;71.83;97997.88;5039091;28;20201;-68
2021/10/01 10:37:42;;;;;;;2.23;2.03;;;;;;;21.34;72.01;97942.22;5036897;28;20201;-67
2021/10/01 10:40:18;;;;;;;2.20;2.00;;;;;;;21.63;71.98;97992.75;5018707;28;20223;-68
2021/10/01 10:42:51;;;;;;;1.90;1.80;;;;;;;21.62;72.23;97986.75;5040520;28;20201;-66
2021/10/01 10:45:19;;;;;;;2.27;1.93;;;;;;;21.61;72.00;97987.59;5038463;28;20228;-68
2021/10/01 10:47:54;;;;;;;3.57;2.07;;;;;;;21.62;72.23;97980.78;5043287;28;20201;-64
2021/10/01 10:50:21;;;;;;;2.90;2.10;;;;;;;21.61;72.35;97973.91;5047910;28;20638;-66
2021/10/01 10:53:06;;;;;;;2.70;2.10;;;;;;;21.61;72.40;97969.69;5049471;28;20254;-67
2021/10/01 10:55:34;;;;;;;4.80;2.00;;;;;;;21.61;72.21;97964.56;5050385;28;20647;-66
2021/10/01 10:58:40;;;;;;;2.67;1.80;;;;;;;21.62;72.30;97965.44;5049170;28;20279;-67
2021/10/01 11:01:13;;;;;;;2.93;2.10;;;;;;;21.61;72.17;97954.34;5002315;28;20205;-67
2021/10/01 11:03:45;;;;;;;3.03;2.40;;;;;;;21.62;72.50;97958.63;5008305;28;20202;-66
2021/10/01 11:06:18;;;;;;;3.27;2.43;;;;;;;21.62;72.32;97945.84;5021116;28;20292;-66
2021/10/01 11:08:49;;;;;;;3.10;2.43;;;;;;;21.59;72.42;97935.50;5051206;28;20285;-66
2021/10/01 11:11:28;;;;;;;4.57;2.33;;;;;;;21.62;72.55;97934.75;5032759;28;20193;-67
2021/10/01 11:14:12;;;;;;;3.07;2.40;;;;;;;21.62;72.48;97938.16;5050301;28;20727;-67
2021/10/01 11:16:39;;;;;;;3.13;2.17;;;;;;;21.62;72.76;97935.59;5048165;28;20255;-66
2021/10/01 11:19:07;;;;;;;3.77;2.60;;;;;;;21.63;72.75;97927.13;5045188;28;20233;-67
2021/10/01 11:21:43;;;;;;;3.57;2.50;;;;;;;21.63;72.73;97927.13;5033171;28;20721;-66
2021/10/01 11:24:21;;;;;;;5.30;2.50;;;;;;;21.63;72.83;97923.69;5045035;28;20369;-66
2021/10/01 11:27:06;;;;;;;4.90;2.63;;;;;;;21.63;73.00;97921.13;5049877;28;20201;-66
2021/10/01 11:29:38;;;;;;;6.27;3.00;;;;;;;21.62;72.84;97911.72;5049762;28;20255;-66
2021/10/01 11:32:16;;;;;;;4.53;2.87;;;;;;;21.61;72.78;97908.28;5032994;28;20197;-66
2021/10/01 11:34:54;;;;;;;5.23;2.97;;;;;;;21.61;73.12;97898.06;5046194;28;20231;-67
2021/10/01 11:37:32;;;;;;;5.00;2.60;;;;;;;21.62;73.11;97897.22;5049668;28;20225;-67
2021/10/01 11:40:07;;;;;;;3.93;2.60;;;;;;;21.62;73.26;97897.22;5044633;28;20252;-67
2021/10/01 11:42:42;;;;;;;5.67;3.30;;;;;;;21.62;73.05;97894.69;5049785;28;20220;-67
2021/10/01 11:45:25;;;;;;;7.53;2.70;;;;;;;21.62;73.17;97888.72;5050554;28;20205;-66
2021/10/01 11:47:56;;;;;;;5.57;2.90;;;;;;;21.62;73.10;97879.31;5048094;28;20274;-66
2021/10/01 11:50:35;;;;;;;3.87;2.70;;;;;;;21.63;73.24;97886.22;5050241;28;20228;-66
2021/10/01 11:53:05;;;;;;;7.10;3.33;;;;;;;21.63;73.24;97873.41;5033015;28;20646;-67
2021/10/01 11:55:35;;;;;;;4.83;3.03;;;;;;;21.63;73.18;97868.31;5049714;28;20228;-66
2021/10/01 11:58:02;;;;;;;3.90;2.90;;;;;;;21.62;73.07;97856.31;5048184;28;20690;-67
2021/10/01 12:00:30;;;;;;;3.47;2.90;;;;;;;21.63;72.91;97860.63;5045668;28;20217;-66
2021/10/01 12:02:56;;;;;;;6.17;3.30;;;;;;;21.63;73.17;97857.19;5049085;28;20229;-66
2021/10/01 12:05:25;;;;;;;5.07;3.23;;;;;;;21.63;73.32;97852.97;5049269;28;20244;-66
2021/10/01 12:07:57;;;;;;;5.63;3.40;;;;;;;21.63;73.35;97846.97;5048389;28;20209;-67
2021/10/01 12:10:25;;;;;;;6.47;3.10;;;;;;;21.64;73.29;97851.25;5046705;28;20741;-67
2021/10/01 12:13:01;;;;;;;6.33;3.30;;;;;;;21.59;73.22;97843.41;5048104;28;20236;-67
2021/10/01 12:15:33;;;;;;;7.40;3.30;;;;;;;21.63;73.73;97842.72;5029349;28;20662;-67
2021/10/01 12:18:00;;;;;;;5.30;3.17;;;;;;;21.62;73.37;97840.13;5044492;28;20688;-67
2021/10/01 12:20:27;;;;;;;5.60;3.43;;;;;;;21.62;73.46;97835.84;5019009;28;20259;-67
2021/10/01 12:22:53;;;;;;;5.40;3.60;;;;;;;21.62;73.60;97830.72;5044586;28;20266;-67
2021/10/01 12:25:25;;;;;;;5.70;3.27;;;;;;;21.63;73.48;97831.59;5049277;28;20200;-67
2021/10/01 12:27:51;;;;;;;5.27;3.20;;;;;;;21.63;73.61;97837.59;5048500;28;20664;-64
2021/10/01 12:30:19;;;;;;;5.37;3.30;;;;;;;21.63;73.53;97814.59;5048694;28;20300;-65
2021/10/01 12:32:47;;;;;;;5.53;2.90;;;;;;;21.63;73.71;97821.38;5048691;28;20705;-64
2021/10/01 12:35:14;;;;;;;4.70;2.90;;;;;;;21.63;73.42;97813.72;5018734;28;20562;-64
2021/10/01 12:37:41;;;;;;;7.37;3.80;;;;;;;21.62;73.50;97812.81;5046832;28;20288;-65
2021/10/01 12:40:08;;;;;;;4.73;3.27;;;;;;;21.63;73.43;97813.72;5031954;28;20224;-64
2021/10/01 12:42:36;;;;;;;6.50;3.77;;;;;;;21.64;73.65;97805.19;5048490;28;20232;-65
2021/10/01 12:45:07;;;;;;;5.33;3.50;;;;;;;21.60;73.65;97800.81;5049218;28;20209;-66
2021/10/01 12:47:35;;;;;;;5.10;3.60;;;;;;;21.64;73.74;97806.09;5030601;28;20232;-66
2021/10/01 12:50:12;;;;;;;5.63;3.87;;;;;;;21.64;73.63;97798.41;5048745;28;20701;-65
2021/10/01 12:52:59;;;;;;;6.90;3.93;;;;;;;21.65;73.71;97799.28;5044565;28;20239;-65
2021/10/01 12:55:27;;;;;;;5.13;3.50;;;;;;;21.65;73.72;97801.84;5044616;28;20639;-65
2021/10/01 12:57:54;;;;;;;5.13;3.10;;;;;;;21.65;73.58;97791.63;5043853;28;20671;-64
2021/10/01 13:00:31;;;;;;;5.23;3.40;;;;;;;21.65;73.49;97789.06;5048523;28;20225;-65
2021/10/01 13:03:02;;;;;;;5.90;3.63;;;;;;;21.65;73.51;97778.84;5046141;28;20659;-65
2021/10/01 13:05:35;;;;;;;5.77;3.80;;;;;;;21.64;73.78;97777.94;5048485;28;20254;-63
2021/10/01 13:08:02;;;;;;;4.23;3.13;;;;;;;21.65;73.84;97776.28;5027995;28;20304;-65
2021/10/01 13:10:42;;;;;;;7.00;4.10;;;;;;;21.65;73.81;97774.56;5046841;28;20216;-65
2021/10/01 13:13:16;;;;;;;5.13;3.13;;;;;;;21.66;73.85;97767.78;5039076;28;20198;-65
2021/10/01 13:15:47;;;;;;;5.30;3.80;;;;;;;21.65;73.92;97755.81;5047597;28;20200;-65